sensor_id;sensor_type;location;lat;lon;timestamp;temperature;humidity
6738;DHT22;3406;49.902;8.596;2023-07-02T00:01:43;18.60;80.20
6738;DHT22;3406;49.902;8.596;2023-07-02T00:04:10;18.60;80.10
6738;DHT22;3406;49.902;8.596;2023-07-02T00:06:39;18.60;80.00
6738;DHT22;3406;49.902;8.596;2023-07-02T00:09:08;18.60;80.00
6738;DHT22;3406;49.902;8.596;2023-07-02T00:11:35;18.60;80.50
6738;DHT22;3406;49.902;8.596;2023-07-02T00:14:02;18.60;79.60
6738;DHT22;3406;49.902;8.596;2023-07-02T00:16:28;18.50;79.40
6738;DHT22;3406;49.902;8.596;2023-07-02T00:18:55;18.50;79.30
6738;DHT22;3406;49.902;8.596;2023-07-02T00:21:22;18.50;79.30
6738;DHT22;3406;49.902;8.596;2023-07-02T00:23:53;18.50;79.20
6738;DHT22;3406;49.902;8.596;2023-07-02T00:26:23;18.50;79.10
6738;DHT22;3406;49.902;8.596;2023-07-02T00:28:50;18.40;79.00
6738;DHT22;3406;49.902;8.596;2023-07-02T00:31:17;18.40;79.00
6738;DHT22;3406;49.902;8.596;2023-07-02T00:33:44;18.40;79.00
6738;DHT22;3406;49.902;8.596;2023-07-02T00:36:10;18.40;79.00
6738;DHT22;3406;49.902;8.596;2023-07-02T00:38:40;18.30;78.90
6738;DHT22;3406;49.902;8.596;2023-07-02T00:41:07;18.30;78.90
6738;DHT22;3406;49.902;8.596;2023-07-02T00:43:35;18.30;78.90
6738;DHT22;3406;49.902;8.596;2023-07-02T00:46:04;18.30;78.80
6738;DHT22;3406;49.902;8.596;2023-07-02T00:48:31;18.20;78.70
6738;DHT22;3406;49.902;8.596;2023-07-02T00:50:58;18.20;78.80
6738;DHT22;3406;49.902;8.596;2023-07-02T00:53:25;18.20;78.90
6738;DHT22;3406;49.902;8.596;2023-07-02T00:55:52;18.10;78.80
6738;DHT22;3406;49.902;8.596;2023-07-02T00:58:18;18.10;78.80
6738;DHT22;3406;49.902;8.596;2023-07-02T01:00:47;18.00;78.80
6738;DHT22;3406;49.902;8.596;2023-07-02T01:03:14;18.00;79.00
6738;DHT22;3406;49.902;8.596;2023-07-02T01:05:41;18.00;79.00
6738;DHT22;3406;49.902;8.596;2023-07-02T01:08:08;18.00;79.00
6738;DHT22;3406;49.902;8.596;2023-07-02T01:10:36;17.90;79.00
6738;DHT22;3406;49.902;8.596;2023-07-02T01:13:08;17.90;79.00
6738;DHT22;3406;49.902;8.596;2023-07-02T01:15:36;17.90;79.00
6738;DHT22;3406;49.902;8.596;2023-07-02T01:18:05;17.80;79.00
6738;DHT22;3406;49.902;8.596;2023-07-02T01:20:33;17.70;79.20
6738;DHT22;3406;49.902;8.596;2023-07-02T01:23:01;17.60;79.20
6738;DHT22;3406;49.902;8.596;2023-07-02T01:25:29;17.60;79.30
6738;DHT22;3406;49.902;8.596;2023-07-02T01:27:56;17.50;79.40
6738;DHT22;3406;49.902;8.596;2023-07-02T01:30:24;17.50;79.50
6738;DHT22;3406;49.902;8.596;2023-07-02T01:32:51;17.40;79.50
6738;DHT22;3406;49.902;8.596;2023-07-02T01:35:18;17.40;79.60
6738;DHT22;3406;49.902;8.596;2023-07-02T01:37:46;17.40;79.60
6738;DHT22;3406;49.902;8.596;2023-07-02T01:40:13;17.30;79.60
6738;DHT22;3406;49.902;8.596;2023-07-02T01:42:40;17.30;79.70
6738;DHT22;3406;49.902;8.596;2023-07-02T01:45:08;17.30;79.80
6738;DHT22;3406;49.902;8.596;2023-07-02T01:47:34;17.20;79.80
6738;DHT22;3406;49.902;8.596;2023-07-02T01:50:03;17.20;79.80
6738;DHT22;3406;49.902;8.596;2023-07-02T01:52:30;17.10;80.10
6738;DHT22;3406;49.902;8.596;2023-07-02T01:55:00;17.10;80.10
6738;DHT22;3406;49.902;8.596;2023-07-02T01:57:27;17.10;80.10
6738;DHT22;3406;49.902;8.596;2023-07-02T01:59:53;17.00;79.80
6738;DHT22;3406;49.902;8.596;2023-07-02T02:02:20;17.00;79.80
6738;DHT22;3406;49.902;8.596;2023-07-02T02:04:46;16.90;79.70
6738;DHT22;3406;49.902;8.596;2023-07-02T02:07:13;16.90;79.70
6738;DHT22;3406;49.902;8.596;2023-07-02T02:09:40;16.90;79.70
6738;DHT22;3406;49.902;8.596;2023-07-02T02:12:08;16.80;79.40
6738;DHT22;3406;49.902;8.596;2023-07-02T02:14:35;16.80;79.20
6738;DHT22;3406;49.902;8.596;2023-07-02T02:17:02;16.80;79.00
6738;DHT22;3406;49.902;8.596;2023-07-02T02:19:29;16.80;78.60
6738;DHT22;3406;49.902;8.596;2023-07-02T02:21:56;16.80;78.30
6738;DHT22;3406;49.902;8.596;2023-07-02T02:24:22;16.80;78.10
6738;DHT22;3406;49.902;8.596;2023-07-02T02:26:49;16.90;78.00
6738;DHT22;3406;49.902;8.596;2023-07-02T02:29:17;16.80;77.60
6738;DHT22;3406;49.902;8.596;2023-07-02T02:31:43;16.80;77.60
6738;DHT22;3406;49.902;8.596;2023-07-02T02:34:10;16.70;77.40
6738;DHT22;3406;49.902;8.596;2023-07-02T02:36:37;16.70;77.30
6738;DHT22;3406;49.902;8.596;2023-07-02T02:39:03;16.70;77.30
6738;DHT22;3406;49.902;8.596;2023-07-02T02:41:31;16.70;77.10
6738;DHT22;3406;49.902;8.596;2023-07-02T02:43:57;16.60;76.80
6738;DHT22;3406;49.902;8.596;2023-07-02T02:46:25;16.60;76.60
6738;DHT22;3406;49.902;8.596;2023-07-02T02:48:52;16.50;76.30
6738;DHT22;3406;49.902;8.596;2023-07-02T02:54:41;16.50;76.20
6738;DHT22;3406;49.902;8.596;2023-07-02T02:57:07;16.40;75.80
6738;DHT22;3406;49.902;8.596;2023-07-02T02:59:34;16.40;75.60
6738;DHT22;3406;49.902;8.596;2023-07-02T03:02:03;16.40;75.60
6738;DHT22;3406;49.902;8.596;2023-07-02T03:04:29;16.30;75.30
6738;DHT22;3406;49.902;8.596;2023-07-02T03:06:56;16.30;75.10
6738;DHT22;3406;49.902;8.596;2023-07-02T03:09:23;16.30;75.10
6738;DHT22;3406;49.902;8.596;2023-07-02T03:11:49;16.30;75.00
6738;DHT22;3406;49.902;8.596;2023-07-02T03:14:16;16.20;74.80
6738;DHT22;3406;49.902;8.596;2023-07-02T03:16:43;16.20;74.90
6738;DHT22;3406;49.902;8.596;2023-07-02T03:19:13;16.20;75.00
6738;DHT22;3406;49.902;8.596;2023-07-02T03:21:41;16.20;75.00
6738;DHT22;3406;49.902;8.596;2023-07-02T03:24:08;16.20;74.90
6738;DHT22;3406;49.902;8.596;2023-07-02T03:26:37;16.20;74.90
6738;DHT22;3406;49.902;8.596;2023-07-02T03:29:03;16.10;74.90
6738;DHT22;3406;49.902;8.596;2023-07-02T03:31:30;16.10;74.90
6738;DHT22;3406;49.902;8.596;2023-07-02T03:33:57;16.10;75.00
6738;DHT22;3406;49.902;8.596;2023-07-02T03:36:25;16.10;75.00
6738;DHT22;3406;49.902;8.596;2023-07-02T03:38:51;16.10;75.00
6738;DHT22;3406;49.902;8.596;2023-07-02T03:41:18;16.00;75.00
6738;DHT22;3406;49.902;8.596;2023-07-02T03:43:44;16.00;75.10
6738;DHT22;3406;49.902;8.596;2023-07-02T03:46:12;16.00;75.20
6738;DHT22;3406;49.902;8.596;2023-07-02T03:48:39;16.10;75.30
6738;DHT22;3406;49.902;8.596;2023-07-02T03:51:06;16.10;75.20
6738;DHT22;3406;49.902;8.596;2023-07-02T03:53:34;16.10;75.10
6738;DHT22;3406;49.902;8.596;2023-07-02T03:56:01;16.20;75.20
6738;DHT22;3406;49.902;8.596;2023-07-02T03:58:27;16.20;75.10
6738;DHT22;3406;49.902;8.596;2023-07-02T04:00:54;16.20;75.00
6738;DHT22;3406;49.902;8.596;2023-07-02T04:03:21;16.30;75.00
6738;DHT22;3406;49.902;8.596;2023-07-02T04:05:47;16.30;74.90
6738;DHT22;3406;49.902;8.596;2023-07-02T04:08:14;16.40;75.00
6738;DHT22;3406;49.902;8.596;2023-07-02T04:10:42;16.40;74.90
6738;DHT22;3406;49.902;8.596;2023-07-02T04:13:09;16.40;74.80
6738;DHT22;3406;49.902;8.596;2023-07-02T04:15:36;16.40;74.70
6738;DHT22;3406;49.902;8.596;2023-07-02T04:18:02;16.40;74.70
6738;DHT22;3406;49.902;8.596;2023-07-02T04:20:29;16.40;74.60
6738;DHT22;3406;49.902;8.596;2023-07-02T04:22:56;16.40;74.60
6738;DHT22;3406;49.902;8.596;2023-07-02T04:25:23;16.50;74.70
6738;DHT22;3406;49.902;8.596;2023-07-02T04:27:51;16.50;74.60
6738;DHT22;3406;49.902;8.596;2023-07-02T04:30:21;16.40;75.30
6738;DHT22;3406;49.902;8.596;2023-07-02T04:32:48;16.40;74.70
6738;DHT22;3406;49.902;8.596;2023-07-02T04:35:15;16.50;74.80
6738;DHT22;3406;49.902;8.596;2023-07-02T04:37:41;16.50;74.80
6738;DHT22;3406;49.902;8.596;2023-07-02T04:40:09;16.50;74.80
6738;DHT22;3406;49.902;8.596;2023-07-02T04:42:36;16.50;74.80
6738;DHT22;3406;49.902;8.596;2023-07-02T04:45:05;16.50;75.40
6738;DHT22;3406;49.902;8.596;2023-07-02T04:47:32;16.50;74.70
6738;DHT22;3406;49.902;8.596;2023-07-02T04:49:59;16.50;74.70
6738;DHT22;3406;49.902;8.596;2023-07-02T04:52:26;16.50;74.60
6738;DHT22;3406;49.902;8.596;2023-07-02T04:54:53;16.60;74.70
6738;DHT22;3406;49.902;8.596;2023-07-02T04:57:21;16.60;74.70
6738;DHT22;3406;49.902;8.596;2023-07-02T04:59:49;16.60;74.60
6738;DHT22;3406;49.902;8.596;2023-07-02T05:02:17;16.60;74.60
6738;DHT22;3406;49.902;8.596;2023-07-02T05:04:44;16.70;74.40
6738;DHT22;3406;49.902;8.596;2023-07-02T05:07:10;16.70;74.20
6738;DHT22;3406;49.902;8.596;2023-07-02T05:09:37;16.80;74.30
6738;DHT22;3406;49.902;8.596;2023-07-02T05:12:04;16.90;74.20
6738;DHT22;3406;49.902;8.596;2023-07-02T05:14:31;16.90;74.00
6738;DHT22;3406;49.902;8.596;2023-07-02T05:16:57;17.00;73.90
6738;DHT22;3406;49.902;8.596;2023-07-02T05:19:25;17.10;73.70
6738;DHT22;3406;49.902;8.596;2023-07-02T05:21:52;17.20;73.30
6738;DHT22;3406;49.902;8.596;2023-07-02T05:24:19;17.30;73.20
6738;DHT22;3406;49.902;8.596;2023-07-02T05:26:45;17.30;72.90
6738;DHT22;3406;49.902;8.596;2023-07-02T05:29:12;17.40;72.60
6738;DHT22;3406;49.902;8.596;2023-07-02T05:31:39;17.40;72.40
6738;DHT22;3406;49.902;8.596;2023-07-02T05:34:06;17.40;72.20
6738;DHT22;3406;49.902;8.596;2023-07-02T05:36:34;17.50;72.20
6738;DHT22;3406;49.902;8.596;2023-07-02T05:39:01;17.40;71.90
6738;DHT22;3406;49.902;8.596;2023-07-02T05:41:27;17.50;72.00
6738;DHT22;3406;49.902;8.596;2023-07-02T05:47:18;17.60;71.80
6738;DHT22;3406;49.902;8.596;2023-07-02T05:49:44;17.60;71.40
6738;DHT22;3406;49.902;8.596;2023-07-02T05:52:12;17.70;71.50
6738;DHT22;3406;49.902;8.596;2023-07-02T05:54:39;17.70;71.30
6738;DHT22;3406;49.902;8.596;2023-07-02T05:57:06;17.80;71.30
6738;DHT22;3406;49.902;8.596;2023-07-02T05:59:33;17.80;70.90
6738;DHT22;3406;49.902;8.596;2023-07-02T06:02:00;17.90;70.80
6738;DHT22;3406;49.902;8.596;2023-07-02T06:04:27;18.00;70.80
6738;DHT22;3406;49.902;8.596;2023-07-02T06:06:53;18.00;70.60
6738;DHT22;3406;49.902;8.596;2023-07-02T06:09:21;18.10;71.10
6738;DHT22;3406;49.902;8.596;2023-07-02T06:11:48;18.20;70.20
6738;DHT22;3406;49.902;8.596;2023-07-02T06:14:15;18.40;70.00
6738;DHT22;3406;49.902;8.596;2023-07-02T06:16:41;18.50;69.70
6738;DHT22;3406;49.902;8.596;2023-07-02T06:19:08;18.50;69.40
6738;DHT22;3406;49.902;8.596;2023-07-02T06:21:35;18.70;69.40
6738;DHT22;3406;49.902;8.596;2023-07-02T06:24:02;19.00;69.00
6738;DHT22;3406;49.902;8.596;2023-07-02T06:26:30;19.20;68.50
6738;DHT22;3406;49.902;8.596;2023-07-02T06:28:57;19.40;68.00
6738;DHT22;3406;49.902;8.596;2023-07-02T06:31:24;19.60;67.50
6738;DHT22;3406;49.902;8.596;2023-07-02T06:33:50;19.70;67.00
6738;DHT22;3406;49.902;8.596;2023-07-02T06:38:45;19.80;66.50
6738;DHT22;3406;49.902;8.596;2023-07-02T06:41:12;19.60;66.30
6738;DHT22;3406;49.902;8.596;2023-07-02T06:43:41;19.50;66.30
6738;DHT22;3406;49.902;8.596;2023-07-02T06:46:10;19.40;66.60
6738;DHT22;3406;49.902;8.596;2023-07-02T06:48:36;19.40;66.90
6738;DHT22;3406;49.902;8.596;2023-07-02T06:51:03;19.30;66.80
6738;DHT22;3406;49.902;8.596;2023-07-02T06:53:30;19.20;66.80
6738;DHT22;3406;49.902;8.596;2023-07-02T06:55:56;19.10;66.70
6738;DHT22;3406;49.902;8.596;2023-07-02T06:58:23;19.10;66.80
6738;DHT22;3406;49.902;8.596;2023-07-02T07:00:51;19.10;66.80
6738;DHT22;3406;49.902;8.596;2023-07-02T07:03:17;19.10;67.00
6738;DHT22;3406;49.902;8.596;2023-07-02T07:05:44;19.10;66.90
6738;DHT22;3406;49.902;8.596;2023-07-02T07:08:11;19.20;66.90
6738;DHT22;3406;49.902;8.596;2023-07-02T07:10:37;19.30;66.70
6738;DHT22;3406;49.902;8.596;2023-07-02T07:13:04;19.30;66.60
6738;DHT22;3406;49.902;8.596;2023-07-02T07:15:33;19.40;66.70
6738;DHT22;3406;49.902;8.596;2023-07-02T07:18:02;19.50;66.50
6738;DHT22;3406;49.902;8.596;2023-07-02T07:20:28;19.50;66.20
6738;DHT22;3406;49.902;8.596;2023-07-02T07:22:55;19.60;66.20
6738;DHT22;3406;49.902;8.596;2023-07-02T07:25:22;19.70;66.10
6738;DHT22;3406;49.902;8.596;2023-07-02T07:27:48;19.80;66.00
6738;DHT22;3406;49.902;8.596;2023-07-02T07:30:15;19.80;65.70
6738;DHT22;3406;49.902;8.596;2023-07-02T07:32:48;19.80;65.50
6738;DHT22;3406;49.902;8.596;2023-07-02T07:35:16;19.80;65.50
6738;DHT22;3406;49.902;8.596;2023-07-02T07:37:43;19.90;65.20
6738;DHT22;3406;49.902;8.596;2023-07-02T07:40:11;20.00;65.10
6738;DHT22;3406;49.902;8.596;2023-07-02T07:42:37;20.00;64.90
6738;DHT22;3406;49.902;8.596;2023-07-02T07:45:05;20.10;64.50
6738;DHT22;3406;49.902;8.596;2023-07-02T07:47:31;20.10;63.70
6738;DHT22;3406;49.902;8.596;2023-07-02T07:49:58;20.20;63.20
6738;DHT22;3406;49.902;8.596;2023-07-02T07:52:26;20.40;63.10
6738;DHT22;3406;49.902;8.596;2023-07-02T07:54:53;20.70;62.60
6738;DHT22;3406;49.902;8.596;2023-07-02T07:57:20;20.90;61.60
6738;DHT22;3406;49.902;8.596;2023-07-02T07:59:46;21.00;60.90
6738;DHT22;3406;49.902;8.596;2023-07-02T08:02:13;21.20;60.40
6738;DHT22;3406;49.902;8.596;2023-07-02T08:04:39;21.20;60.00
6738;DHT22;3406;49.902;8.596;2023-07-02T08:07:06;21.20;60.00
6738;DHT22;3406;49.902;8.596;2023-07-02T08:09:35;21.20;60.00
6738;DHT22;3406;49.902;8.596;2023-07-02T08:12:03;21.40;59.80
6738;DHT22;3406;49.902;8.596;2023-07-02T08:14:29;21.60;59.50
6738;DHT22;3406;49.902;8.596;2023-07-02T08:16:56;22.00;59.30
6738;DHT22;3406;49.902;8.596;2023-07-02T08:19:22;22.40;58.50
6738;DHT22;3406;49.902;8.596;2023-07-02T08:21:50;22.50;57.20
6738;DHT22;3406;49.902;8.596;2023-07-02T08:24:16;22.20;56.50
6738;DHT22;3406;49.902;8.596;2023-07-02T08:26:44;22.20;56.60
6738;DHT22;3406;49.902;8.596;2023-07-02T08:29:13;22.30;56.40
6738;DHT22;3406;49.902;8.596;2023-07-02T08:31:40;22.40;56.10
6738;DHT22;3406;49.902;8.596;2023-07-02T08:34:07;22.40;55.60
6738;DHT22;3406;49.902;8.596;2023-07-02T08:36:33;22.50;55.30
6738;DHT22;3406;49.902;8.596;2023-07-02T08:39:00;22.80;55.00
6738;DHT22;3406;49.902;8.596;2023-07-02T08:41:27;22.80;54.50
6738;DHT22;3406;49.902;8.596;2023-07-02T08:43:56;22.60;54.30
6738;DHT22;3406;49.902;8.596;2023-07-02T08:46:25;22.40;54.50
6738;DHT22;3406;49.902;8.596;2023-07-02T08:48:51;22.30;54.80
6738;DHT22;3406;49.902;8.596;2023-07-02T08:51:18;22.20;54.30
6738;DHT22;3406;49.902;8.596;2023-07-02T08:53:45;22.20;53.80
6738;DHT22;3406;49.902;8.596;2023-07-02T08:56:11;22.10;53.40
6738;DHT22;3406;49.902;8.596;2023-07-02T08:58:38;22.00;53.20
6738;DHT22;3406;49.902;8.596;2023-07-02T09:01:08;21.90;52.90
6738;DHT22;3406;49.902;8.596;2023-07-02T09:03:35;21.80;52.60
6738;DHT22;3406;49.902;8.596;2023-07-02T09:06:02;21.90;53.00
6738;DHT22;3406;49.902;8.596;2023-07-02T09:08:29;22.20;53.10
6738;DHT22;3406;49.902;8.596;2023-07-02T09:11:06;22.50;52.20
6738;DHT22;3406;49.902;8.596;2023-07-02T09:13:42;22.60;51.20
6738;DHT22;3406;49.902;8.596;2023-07-02T09:16:20;22.50;51.20
6738;DHT22;3406;49.902;8.596;2023-07-02T09:18:58;22.50;51.00
6738;DHT22;3406;49.902;8.596;2023-07-02T09:21:26;22.50;50.80
6738;DHT22;3406;49.902;8.596;2023-07-02T09:23:53;22.50;51.10
6738;DHT22;3406;49.902;8.596;2023-07-02T09:26:20;22.50;51.10
6738;DHT22;3406;49.902;8.596;2023-07-02T09:28:47;22.60;51.20
6738;DHT22;3406;49.902;8.596;2023-07-02T09:31:15;22.80;50.70
6738;DHT22;3406;49.902;8.596;2023-07-02T09:33:42;23.10;50.30
6738;DHT22;3406;49.902;8.596;2023-07-02T09:36:08;23.30;50.00
6738;DHT22;3406;49.902;8.596;2023-07-02T09:38:35;23.40;49.80
6738;DHT22;3406;49.902;8.596;2023-07-02T09:41:02;23.70;49.60
6738;DHT22;3406;49.902;8.596;2023-07-02T09:43:31;23.80;48.60
6738;DHT22;3406;49.902;8.596;2023-07-02T09:45:58;23.80;48.10
6738;DHT22;3406;49.902;8.596;2023-07-02T09:48:28;23.60;48.00
6738;DHT22;3406;49.902;8.596;2023-07-02T09:50:58;23.60;48.00
6738;DHT22;3406;49.902;8.596;2023-07-02T09:53:27;23.50;47.90
6738;DHT22;3406;49.902;8.596;2023-07-02T09:55:54;23.40;48.10
6738;DHT22;3406;49.902;8.596;2023-07-02T09:58:21;23.40;48.30
6738;DHT22;3406;49.902;8.596;2023-07-02T10:00:47;23.30;48.50
6738;DHT22;3406;49.902;8.596;2023-07-02T10:03:14;23.30;48.40
6738;DHT22;3406;49.902;8.596;2023-07-02T10:05:42;23.30;47.60
6738;DHT22;3406;49.902;8.596;2023-07-02T10:08:12;23.30;47.10
6738;DHT22;3406;49.902;8.596;2023-07-02T10:10:39;23.20;47.00
6738;DHT22;3406;49.902;8.596;2023-07-02T10:13:06;23.10;47.40
6738;DHT22;3406;49.902;8.596;2023-07-02T10:15:33;22.80;47.90
6738;DHT22;3406;49.902;8.596;2023-07-02T10:18:03;22.80;48.60
6738;DHT22;3406;49.902;8.596;2023-07-02T10:20:34;22.80;49.10
6738;DHT22;3406;49.902;8.596;2023-07-02T10:23:03;22.80;49.20
6738;DHT22;3406;49.902;8.596;2023-07-02T10:25:31;22.90;48.90
6738;DHT22;3406;49.902;8.596;2023-07-02T10:27:59;23.10;48.30
6738;DHT22;3406;49.902;8.596;2023-07-02T10:30:34;23.20;48.10
6738;DHT22;3406;49.902;8.596;2023-07-02T10:33:08;23.40;48.10
6738;DHT22;3406;49.902;8.596;2023-07-02T10:35:35;23.40;47.70
6738;DHT22;3406;49.902;8.596;2023-07-02T10:38:03;23.20;47.80
6738;DHT22;3406;49.902;8.596;2023-07-02T10:40:32;23.10;48.20
6738;DHT22;3406;49.902;8.596;2023-07-02T10:42:59;23.10;48.40
6738;DHT22;3406;49.902;8.596;2023-07-02T10:45:33;23.20;48.40
6738;DHT22;3406;49.902;8.596;2023-07-02T10:48:02;23.30;48.30
6738;DHT22;3406;49.902;8.596;2023-07-02T10:50:30;23.30;48.00
6738;DHT22;3406;49.902;8.596;2023-07-02T10:52:58;23.20;48.00
6738;DHT22;3406;49.902;8.596;2023-07-02T10:55:26;23.20;48.10
6738;DHT22;3406;49.902;8.596;2023-07-02T10:58:03;23.10;48.10
6738;DHT22;3406;49.902;8.596;2023-07-02T11:00:30;23.10;47.80
6738;DHT22;3406;49.902;8.596;2023-07-02T11:02:58;23.20;47.60
6738;DHT22;3406;49.902;8.596;2023-07-02T11:05:24;23.40;47.20
6738;DHT22;3406;49.902;8.596;2023-07-02T11:07:51;23.70;46.00
6738;DHT22;3406;49.902;8.596;2023-07-02T11:10:23;23.80;45.50
6738;DHT22;3406;49.902;8.596;2023-07-02T11:12:51;24.10;44.90
6738;DHT22;3406;49.902;8.596;2023-07-02T11:15:18;24.30;44.90
6738;DHT22;3406;49.902;8.596;2023-07-02T11:17:45;24.40;44.30
6738;DHT22;3406;49.902;8.596;2023-07-02T11:20:13;24.20;44.50
6738;DHT22;3406;49.902;8.596;2023-07-02T11:22:40;24.00;44.80
6738;DHT22;3406;49.902;8.596;2023-07-02T11:25:12;24.00;45.20
6738;DHT22;3406;49.902;8.596;2023-07-02T11:27:39;24.00;45.30
6738;DHT22;3406;49.902;8.596;2023-07-02T11:30:07;23.90;45.40
6738;DHT22;3406;49.902;8.596;2023-07-02T11:32:50;24.00;45.50
6738;DHT22;3406;49.902;8.596;2023-07-02T11:35:17;24.20;45.70
6738;DHT22;3406;49.902;8.596;2023-07-02T11:37:44;24.60;45.50
6738;DHT22;3406;49.902;8.596;2023-07-02T11:40:12;24.90;44.70
6738;DHT22;3406;49.902;8.596;2023-07-02T11:42:39;25.10;44.10
6738;DHT22;3406;49.902;8.596;2023-07-02T11:45:08;25.00;44.00
6738;DHT22;3406;49.902;8.596;2023-07-02T11:47:35;24.80;44.30
6738;DHT22;3406;49.902;8.596;2023-07-02T11:50:02;24.60;44.70
6738;DHT22;3406;49.902;8.596;2023-07-02T11:52:28;24.70;44.90
6738;DHT22;3406;49.902;8.596;2023-07-02T11:54:55;24.90;44.60
6738;DHT22;3406;49.902;8.596;2023-07-02T11:57:22;25.00;44.30
6738;DHT22;3406;49.902;8.596;2023-07-02T11:59:48;25.00;44.10
6738;DHT22;3406;49.902;8.596;2023-07-02T12:02:17;25.00;44.00
6738;DHT22;3406;49.902;8.596;2023-07-02T12:04:43;24.80;43.60
6738;DHT22;3406;49.902;8.596;2023-07-02T12:07:10;24.60;43.90
6738;DHT22;3406;49.902;8.596;2023-07-02T12:09:38;24.50;44.10
6738;DHT22;3406;49.902;8.596;2023-07-02T12:12:06;24.40;44.50
6738;DHT22;3406;49.902;8.596;2023-07-02T12:14:32;24.30;44.80
6738;DHT22;3406;49.902;8.596;2023-07-02T12:16:59;24.30;45.00
6738;DHT22;3406;49.902;8.596;2023-07-02T12:19:27;24.40;44.90
6738;DHT22;3406;49.902;8.596;2023-07-02T12:21:54;24.60;44.60
6738;DHT22;3406;49.902;8.596;2023-07-02T12:24:20;24.70;44.40
6738;DHT22;3406;49.902;8.596;2023-07-02T12:26:47;24.80;44.40
6738;DHT22;3406;49.902;8.596;2023-07-02T12:29:13;24.90;43.80
6738;DHT22;3406;49.902;8.596;2023-07-02T12:31:40;25.00;43.30
6738;DHT22;3406;49.902;8.596;2023-07-02T12:34:07;25.10;43.30
6738;DHT22;3406;49.902;8.596;2023-07-02T12:36:34;25.10;43.40
6738;DHT22;3406;49.902;8.596;2023-07-02T12:39:01;25.00;43.60
6738;DHT22;3406;49.902;8.596;2023-07-02T12:41:28;24.90;43.60
6738;DHT22;3406;49.902;8.596;2023-07-02T12:43:55;24.90;43.70
6738;DHT22;3406;49.902;8.596;2023-07-02T12:46:22;24.90;43.70
6738;DHT22;3406;49.902;8.596;2023-07-02T12:48:49;24.80;43.10
6738;DHT22;3406;49.902;8.596;2023-07-02T12:51:15;24.60;43.20
6738;DHT22;3406;49.902;8.596;2023-07-02T12:53:43;24.50;43.50
6738;DHT22;3406;49.902;8.596;2023-07-02T12:56:10;24.40;43.70
6738;DHT22;3406;49.902;8.596;2023-07-02T12:58:37;24.30;43.90
6738;DHT22;3406;49.902;8.596;2023-07-02T13:01:04;24.50;43.90
6738;DHT22;3406;49.902;8.596;2023-07-02T13:03:30;24.70;43.80
6738;DHT22;3406;49.902;8.596;2023-07-02T13:05:57;24.80;43.70
6738;DHT22;3406;49.902;8.596;2023-07-02T13:08:24;25.10;43.50
6738;DHT22;3406;49.902;8.596;2023-07-02T13:10:52;25.30;43.00
6738;DHT22;3406;49.902;8.596;2023-07-02T13:13:18;25.40;42.40
6738;DHT22;3406;49.902;8.596;2023-07-02T13:15:45;25.50;42.10
6738;DHT22;3406;49.902;8.596;2023-07-02T13:18:12;25.60;41.50
6738;DHT22;3406;49.902;8.596;2023-07-02T13:20:38;25.30;41.40
6738;DHT22;3406;49.902;8.596;2023-07-02T13:23:05;25.30;41.30
6738;DHT22;3406;49.902;8.596;2023-07-02T13:25:31;25.20;41.20
6738;DHT22;3406;49.902;8.596;2023-07-02T13:27:59;25.30;41.20
6738;DHT22;3406;49.902;8.596;2023-07-02T13:30:26;25.60;40.80
6738;DHT22;3406;49.902;8.596;2023-07-02T13:32:53;25.70;40.10
6738;DHT22;3406;49.902;8.596;2023-07-02T13:35:20;25.60;40.00
6738;DHT22;3406;49.902;8.596;2023-07-02T13:37:48;25.40;40.00
6738;DHT22;3406;49.902;8.596;2023-07-02T13:40:14;25.40;40.20
6738;DHT22;3406;49.902;8.596;2023-07-02T13:42:41;25.40;40.00
6738;DHT22;3406;49.902;8.596;2023-07-02T13:45:10;25.60;40.00
6738;DHT22;3406;49.902;8.596;2023-07-02T13:47:36;25.60;39.50
6738;DHT22;3406;49.902;8.596;2023-07-02T13:50:04;25.60;39.60
6738;DHT22;3406;49.902;8.596;2023-07-02T13:52:30;25.80;39.70
6738;DHT22;3406;49.902;8.596;2023-07-02T13:54:57;25.70;39.30
6738;DHT22;3406;49.902;8.596;2023-07-02T13:57:24;25.50;39.50
6738;DHT22;3406;49.902;8.596;2023-07-02T13:59:52;25.30;39.70
6738;DHT22;3406;49.902;8.596;2023-07-02T14:02:20;25.10;39.80
6738;DHT22;3406;49.902;8.596;2023-07-02T14:04:47;25.00;39.70
6738;DHT22;3406;49.902;8.596;2023-07-02T14:07:14;25.10;39.80
6738;DHT22;3406;49.902;8.596;2023-07-02T14:09:40;25.10;39.90
6738;DHT22;3406;49.902;8.596;2023-07-02T14:12:08;25.10;39.70
6738;DHT22;3406;49.902;8.596;2023-07-02T14:14:34;25.10;39.80
6738;DHT22;3406;49.902;8.596;2023-07-02T14:17:03;25.30;39.70
6738;DHT22;3406;49.902;8.596;2023-07-02T14:19:29;25.50;39.60
6738;DHT22;3406;49.902;8.596;2023-07-02T14:21:56;25.80;39.30
6738;DHT22;3406;49.902;8.596;2023-07-02T14:24:23;26.00;38.70
6738;DHT22;3406;49.902;8.596;2023-07-02T14:26:49;26.00;38.60
6738;DHT22;3406;49.902;8.596;2023-07-02T14:29:16;26.20;38.80
6738;DHT22;3406;49.902;8.596;2023-07-02T14:31:43;26.20;38.30
6738;DHT22;3406;49.902;8.596;2023-07-02T14:34:11;26.00;38.30
6738;DHT22;3406;49.902;8.596;2023-07-02T14:36:38;25.80;38.60
6738;DHT22;3406;49.902;8.596;2023-07-02T14:39:04;25.70;38.90
6738;DHT22;3406;49.902;8.596;2023-07-02T14:41:31;25.70;39.00
6738;DHT22;3406;49.902;8.596;2023-07-02T14:44:01;25.60;39.10
6738;DHT22;3406;49.902;8.596;2023-07-02T14:46:27;25.60;38.90
6738;DHT22;3406;49.902;8.596;2023-07-02T14:48:54;25.50;38.60
6738;DHT22;3406;49.902;8.596;2023-07-02T14:51:22;25.40;38.50
6738;DHT22;3406;49.902;8.596;2023-07-02T14:53:50;25.30;38.70
6738;DHT22;3406;49.902;8.596;2023-07-02T14:56:16;25.20;38.60
6738;DHT22;3406;49.902;8.596;2023-07-02T14:58:43;25.10;39.00
6738;DHT22;3406;49.902;8.596;2023-07-02T15:01:10;25.10;39.10
6738;DHT22;3406;49.902;8.596;2023-07-02T15:03:37;25.10;39.10
6738;DHT22;3406;49.902;8.596;2023-07-02T15:06:08;25.10;39.20
6738;DHT22;3406;49.902;8.596;2023-07-02T15:08:36;25.10;39.10
6738;DHT22;3406;49.902;8.596;2023-07-02T15:11:03;25.20;39.00
6738;DHT22;3406;49.902;8.596;2023-07-02T15:13:30;25.20;38.80
6738;DHT22;3406;49.902;8.596;2023-07-02T15:15:57;25.20;38.80
6738;DHT22;3406;49.902;8.596;2023-07-02T15:18:25;25.30;39.00
6738;DHT22;3406;49.902;8.596;2023-07-02T15:20:52;25.30;38.50
6738;DHT22;3406;49.902;8.596;2023-07-02T15:23:20;25.30;38.50
6738;DHT22;3406;49.902;8.596;2023-07-02T15:25:52;25.30;38.70
6738;DHT22;3406;49.902;8.596;2023-07-02T15:28:19;25.30;38.90
6738;DHT22;3406;49.902;8.596;2023-07-02T15:30:46;25.30;38.80
6738;DHT22;3406;49.902;8.596;2023-07-02T15:33:13;25.20;39.00
6738;DHT22;3406;49.902;8.596;2023-07-02T15:35:39;25.30;39.00
6738;DHT22;3406;49.902;8.596;2023-07-02T15:38:06;25.40;38.90
6738;DHT22;3406;49.902;8.596;2023-07-02T15:40:33;25.50;38.60
6738;DHT22;3406;49.902;8.596;2023-07-02T15:43:01;25.40;38.30
6738;DHT22;3406;49.902;8.596;2023-07-02T15:45:28;25.40;38.40
6738;DHT22;3406;49.902;8.596;2023-07-02T15:47:54;25.40;38.30
6738;DHT22;3406;49.902;8.596;2023-07-02T15:50:22;25.30;38.10
6738;DHT22;3406;49.902;8.596;2023-07-02T15:52:48;25.30;38.30
6738;DHT22;3406;49.902;8.596;2023-07-02T15:55:16;25.30;38.40
6738;DHT22;3406;49.902;8.596;2023-07-02T15:57:43;25.50;38.60
6738;DHT22;3406;49.902;8.596;2023-07-02T16:00:12;25.80;38.50
6738;DHT22;3406;49.902;8.596;2023-07-02T16:02:40;25.90;38.30
6738;DHT22;3406;49.902;8.596;2023-07-02T16:05:07;25.90;38.10
6738;DHT22;3406;49.902;8.596;2023-07-02T16:07:34;25.70;38.10
6738;DHT22;3406;49.902;8.596;2023-07-02T16:10:02;25.40;38.20
6738;DHT22;3406;49.902;8.596;2023-07-02T16:12:28;25.30;38.60